sensor_id;sensor_type;location;lat;lon;timestamp;P1;durP1;ratioP1;P2;durP2;ratioP2
38358;SDS011;42072;48.044;14.416;2023-03-19T00:00:27;37.63;;;19.05;;
38358;SDS011;42072;48.044;14.416;2023-03-19T00:02:55;40.08;;;19.05;;
38358;SDS011;42072;48.044;14.416;2023-03-19T00:05:22;40.55;;;19.75;;
38358;SDS011;42072;48.044;14.416;2023-03-19T00:07:49;37.72;;;19.52;;
38358;SDS011;42072;48.044;14.416;2023-03-19T00:10:17;39.22;;;19.10;;
38358;SDS011;42072;48.044;14.416;2023-03-19T00:12:44;38.65;;;18.48;;
38358;SDS011;42072;48.044;14.416;2023-03-19T00:15:11;39.38;;;19.58;;
38358;SDS011;42072;48.044;14.416;2023-03-19T00:17:40;41.45;;;21.35;;
38358;SDS011;42072;48.044;14.416;2023-03-19T00:20:09;48.22;;;22.98;;
38358;SDS011;42072;48.044;14.416;2023-03-19T00:22:38;47.72;;;22.55;;
38358;SDS011;42072;48.044;14.416;2023-03-19T00:25:06;41.30;;;22.35;;
38358;SDS011;42072;48.044;14.416;2023-03-19T00:27:36;53.17;;;26.77;;
38358;SDS011;42072;48.044;14.416;2023-03-19T00:30:04;47.20;;;23.52;;
38358;SDS011;42072;48.044;14.416;2023-03-19T00:32:33;79.22;;;34.97;;
38358;SDS011;42072;48.044;14.416;2023-03-19T00:35:01;118.60;;;49.95;;
38358;SDS011;42072;48.044;14.416;2023-03-19T00:37:29;113.30;;;49.38;;
38358;SDS011;42072;48.044;14.416;2023-03-19T00:39:56;53.58;;;27.95;;
38358;SDS011;42072;48.044;14.416;2023-03-19T00:42:23;71.90;;;31.60;;
38358;SDS011;42072;48.044;14.416;2023-03-19T00:44:51;72.72;;;30.63;;
38358;SDS011;42072;48.044;14.416;2023-03-19T00:47:18;63.67;;;29.88;;
38358;SDS011;42072;48.044;14.416;2023-03-19T00:49:45;63.08;;;28.38;;
38358;SDS011;42072;48.044;14.416;2023-03-19T00:52:12;60.90;;;26.10;;
38358;SDS011;42072;48.044;14.416;2023-03-19T00:54:40;55.13;;;26.20;;
38358;SDS011;42072;48.044;14.416;2023-03-19T00:57:07;52.53;;;24.58;;
38358;SDS011;42072;48.044;14.416;2023-03-19T00:59:34;43.78;;;22.08;;
38358;SDS011;42072;48.044;14.416;2023-03-19T01:02:02;40.95;;;19.90;;
38358;SDS011;42072;48.044;14.416;2023-03-19T01:04:30;41.03;;;21.00;;
38358;SDS011;42072;48.044;14.416;2023-03-19T01:06:57;40.25;;;21.58;;
38358;SDS011;42072;48.044;14.416;2023-03-19T01:09:28;38.30;;;21.17;;
38358;SDS011;42072;48.044;14.416;2023-03-19T01:11:55;46.25;;;23.85;;
38358;SDS011;42072;48.044;14.416;2023-03-19T01:14:23;46.47;;;23.60;;
38358;SDS011;42072;48.044;14.416;2023-03-19T01:16:50;41.20;;;22.20;;
38358;SDS011;42072;48.044;14.416;2023-03-19T01:19:18;44.60;;;22.77;;
38358;SDS011;42072;48.044;14.416;2023-03-19T01:21:45;43.53;;;22.23;;
38358;SDS011;42072;48.044;14.416;2023-03-19T01:24:12;51.90;;;23.13;;
38358;SDS011;42072;48.044;14.416;2023-03-19T01:26:39;47.53;;;22.67;;
38358;SDS011;42072;48.044;14.416;2023-03-19T01:29:07;48.65;;;24.45;;
38358;SDS011;42072;48.044;14.416;2023-03-19T01:31:35;48.55;;;26.30;;
38358;SDS011;42072;48.044;14.416;2023-03-19T01:34:02;49.38;;;24.40;;
38358;SDS011;42072;48.044;14.416;2023-03-19T01:36:30;46.05;;;23.50;;
38358;SDS011;42072;48.044;14.416;2023-03-19T01:38:57;45.13;;;24.25;;
38358;SDS011;42072;48.044;14.416;2023-03-19T01:41:24;41.10;;;22.63;;
38358;SDS011;42072;48.044;14.416;2023-03-19T01:43:52;38.78;;;22.30;;
38358;SDS011;42072;48.044;14.416;2023-03-19T01:48:59;35.58;;;20.00;;
38358;SDS011;42072;48.044;14.416;2023-03-19T01:51:30;31.65;;;18.15;;
38358;SDS011;42072;48.044;14.416;2023-03-19T01:54:02;40.75;;;20.70;;
38358;SDS011;42072;48.044;14.416;2023-03-19T01:56:33;37.22;;;19.13;;
38358;SDS011;42072;48.044;14.416;2023-03-19T01:59:08;40.92;;;19.75;;
38358;SDS011;42072;48.044;14.416;2023-03-19T02:01:42;39.17;;;18.98;;
38358;SDS011;42072;48.044;14.416;2023-03-19T02:04:15;39.22;;;19.92;;
38358;SDS011;42072;48.044;14.416;2023-03-19T02:06:44;39.63;;;20.27;;
38358;SDS011;42072;48.044;14.416;2023-03-19T02:09:12;37.00;;;19.35;;
38358;SDS011;42072;48.044;14.416;2023-03-19T02:11:41;39.80;;;21.02;;
38358;SDS011;42072;48.044;14.416;2023-03-19T02:14:08;37.28;;;19.77;;
38358;SDS011;42072;48.044;14.416;2023-03-19T02:16:36;34.20;;;19.27;;
38358;SDS011;42072;48.044;14.416;2023-03-19T02:19:04;37.47;;;19.70;;
38358;SDS011;42072;48.044;14.416;2023-03-19T02:21:35;35.30;;;19.27;;
38358;SDS011;42072;48.044;14.416;2023-03-19T02:24:05;39.15;;;20.63;;
38358;SDS011;42072;48.044;14.416;2023-03-19T02:26:46;39.83;;;21.67;;
38358;SDS011;42072;48.044;14.416;2023-03-19T02:29:14;39.05;;;19.65;;
38358;SDS011;42072;48.044;14.416;2023-03-19T02:31:42;35.63;;;19.17;;
38358;SDS011;42072;48.044;14.416;2023-03-19T02:36:43;37.78;;;19.88;;
38358;SDS011;42072;48.044;14.416;2023-03-19T02:39:34;37.92;;;20.48;;
38358;SDS011;42072;48.044;14.416;2023-03-19T02:42:13;40.03;;;21.23;;
38358;SDS011;42072;48.044;14.416;2023-03-19T02:44:42;46.05;;;22.42;;
38358;SDS011;42072;48.044;14.416;2023-03-19T02:47:10;42.90;;;20.92;;
38358;SDS011;42072;48.044;14.416;2023-03-19T02:49:37;42.15;;;22.27;;
38358;SDS011;42072;48.044;14.416;2023-03-19T02:52:04;42.33;;;21.25;;
38358;SDS011;42072;48.044;14.416;2023-03-19T02:54:32;38.50;;;20.77;;
38358;SDS011;42072;48.044;14.416;2023-03-19T02:56:59;40.40;;;21.13;;
38358;SDS011;42072;48.044;14.416;2023-03-19T02:59:28;41.38;;;21.05;;
38358;SDS011;42072;48.044;14.416;2023-03-19T03:01:56;36.75;;;20.55;;
38358;SDS011;42072;48.044;14.416;2023-03-19T03:04:23;40.42;;;20.05;;
38358;SDS011;42072;48.044;14.416;2023-03-19T03:06:52;34.00;;;19.65;;
38358;SDS011;42072;48.044;14.416;2023-03-19T03:09:20;38.38;;;20.50;;
38358;SDS011;42072;48.044;14.416;2023-03-19T03:11:48;38.67;;;20.17;;
38358;SDS011;42072;48.044;14.416;2023-03-19T03:14:15;37.90;;;21.42;;
38358;SDS011;42072;48.044;14.416;2023-03-19T03:16:42;36.72;;;19.38;;
38358;SDS011;42072;48.044;14.416;2023-03-19T03:19:10;37.85;;;19.95;;
38358;SDS011;42072;48.044;14.416;2023-03-19T03:21:37;38.90;;;19.77;;
38358;SDS011;42072;48.044;14.416;2023-03-19T03:24:05;38.45;;;20.48;;
38358;SDS011;42072;48.044;14.416;2023-03-19T03:26:33;43.63;;;21.90;;
38358;SDS011;42072;48.044;14.416;2023-03-19T03:29:01;37.95;;;20.55;;
38358;SDS011;42072;48.044;14.416;2023-03-19T03:31:28;44.00;;;21.42;;
38358;SDS011;42072;48.044;14.416;2023-03-19T03:33:56;39.05;;;20.65;;
38358;SDS011;42072;48.044;14.416;2023-03-19T03:36:23;35.40;;;20.02;;
38358;SDS011;42072;48.044;14.416;2023-03-19T03:38:51;41.67;;;21.05;;
38358;SDS011;42072;48.044;14.416;2023-03-19T03:41:18;42.80;;;20.30;;
38358;SDS011;42072;48.044;14.416;2023-03-19T03:43:46;38.78;;;19.42;;
38358;SDS011;42072;48.044;14.416;2023-03-19T03:46:13;38.70;;;18.67;;
38358;SDS011;42072;48.044;14.416;2023-03-19T03:48:40;39.33;;;20.40;;
38358;SDS011;42072;48.044;14.416;2023-03-19T03:51:08;36.85;;;20.00;;
38358;SDS011;42072;48.044;14.416;2023-03-19T03:53:35;37.25;;;19.88;;
38358;SDS011;42072;48.044;14.416;2023-03-19T03:56:02;35.38;;;19.42;;
38358;SDS011;42072;48.044;14.416;2023-03-19T03:58:29;38.42;;;20.38;;
38358;SDS011;42072;48.044;14.416;2023-03-19T04:00:57;43.25;;;21.23;;
38358;SDS011;42072;48.044;14.416;2023-03-19T04:03:24;35.25;;;20.08;;
38358;SDS011;42072;48.044;14.416;2023-03-19T04:05:52;39.33;;;20.42;;
38358;SDS011;42072;48.044;14.416;2023-03-19T04:08:19;35.55;;;20.33;;
38358;SDS011;42072;48.044;14.416;2023-03-19T04:10:47;41.10;;;19.95;;
38358;SDS011;42072;48.044;14.416;2023-03-19T04:13:14;39.70;;;20.15;;
38358;SDS011;42072;48.044;14.416;2023-03-19T04:15:42;36.20;;;20.20;;
38358;SDS011;42072;48.044;14.416;2023-03-19T04:18:10;40.70;;;21.95;;
38358;SDS011;42072;48.044;14.416;2023-03-19T04:20:37;39.80;;;21.08;;
38358;SDS011;42072;48.044;14.416;2023-03-19T04:23:05;37.97;;;20.33;;
38358;SDS011;42072;48.044;14.416;2023-03-19T04:25:32;40.88;;;20.42;;
38358;SDS011;42072;48.044;14.416;2023-03-19T04:28:00;38.22;;;20.20;;
38358;SDS011;42072;48.044;14.416;2023-03-19T04:30:27;36.67;;;20.23;;
38358;SDS011;42072;48.044;14.416;2023-03-19T04:32:55;36.55;;;18.48;;
38358;SDS011;42072;48.044;14.416;2023-03-19T04:35:22;34.90;;;18.85;;
38358;SDS011;42072;48.044;14.416;2023-03-19T04:37:49;35.42;;;19.17;;
38358;SDS011;42072;48.044;14.416;2023-03-19T04:40:17;36.28;;;18.77;;
38358;SDS011;42072;48.044;14.416;2023-03-19T04:42:45;38.55;;;19.38;;
38358;SDS011;42072;48.044;14.416;2023-03-19T04:45:12;35.72;;;19.73;;
38358;SDS011;42072;48.044;14.416;2023-03-19T04:47:39;36.03;;;18.55;;
38358;SDS011;42072;48.044;14.416;2023-03-19T04:50:07;35.78;;;19.88;;
38358;SDS011;42072;48.044;14.416;2023-03-19T04:52:35;36.65;;;19.02;;
38358;SDS011;42072;48.044;14.416;2023-03-19T04:55:05;37.00;;;18.75;;
38358;SDS011;42072;48.044;14.416;2023-03-19T04:57:34;39.95;;;20.25;;
38358;SDS011;42072;48.044;14.416;2023-03-19T05:00:03;39.28;;;19.33;;
38358;SDS011;42072;48.044;14.416;2023-03-19T05:02:32;34.28;;;19.63;;
38358;SDS011;42072;48.044;14.416;2023-03-19T05:04:59;40.50;;;19.80;;
38358;SDS011;42072;48.044;14.416;2023-03-19T05:07:26;60.15;;;32.92;;
38358;SDS011;42072;48.044;14.416;2023-03-19T05:09:53;65.65;;;37.13;;
38358;SDS011;42072;48.044;14.416;2023-03-19T05:12:21;37.50;;;20.02;;
38358;SDS011;42072;48.044;14.416;2023-03-19T05:14:48;38.20;;;19.55;;
38358;SDS011;42072;48.044;14.416;2023-03-19T05:17:15;34.13;;;18.83;;
38358;SDS011;42072;48.044;14.416;2023-03-19T05:19:42;33.60;;;18.65;;
38358;SDS011;42072;48.044;14.416;2023-03-19T05:22:10;33.80;;;18.73;;
38358;SDS011;42072;48.044;14.416;2023-03-19T05:24:37;39.78;;;19.23;;
38358;SDS011;42072;48.044;14.416;2023-03-19T05:27:04;32.42;;;18.35;;
38358;SDS011;42072;48.044;14.416;2023-03-19T05:29:32;42.08;;;21.23;;
38358;SDS011;42072;48.044;14.416;2023-03-19T05:31:59;35.60;;;19.27;;
38358;SDS011;42072;48.044;14.416;2023-03-19T05:34:28;37.13;;;19.42;;
38358;SDS011;42072;48.044;14.416;2023-03-19T05:36:56;36.03;;;20.52;;
38358;SDS011;42072;48.044;14.416;2023-03-19T05:39:23;35.35;;;18.83;;
38358;SDS011;42072;48.044;14.416;2023-03-19T05:41:50;34.35;;;19.05;;
38358;SDS011;42072;48.044;14.416;2023-03-19T05:44:18;32.85;;;18.73;;
38358;SDS011;42072;48.044;14.416;2023-03-19T05:46:46;32.50;;;18.70;;
38358;SDS011;42072;48.044;14.416;2023-03-19T05:49:14;32.78;;;18.42;;
38358;SDS011;42072;48.044;14.416;2023-03-19T05:51:41;32.28;;;18.05;;
38358;SDS011;42072;48.044;14.416;2023-03-19T05:54:08;29.73;;;17.70;;
38358;SDS011;42072;48.044;14.416;2023-03-19T05:56:35;30.77;;;17.38;;
38358;SDS011;42072;48.044;14.416;2023-03-19T05:59:02;33.65;;;17.13;;
38358;SDS011;42072;48.044;14.416;2023-03-19T06:01:29;36.28;;;17.58;;
38358;SDS011;42072;48.044;14.416;2023-03-19T06:03:57;34.25;;;17.30;;
38358;SDS011;42072;48.044;14.416;2023-03-19T06:06:24;31.33;;;17.10;;
38358;SDS011;42072;48.044;14.416;2023-03-19T06:08:52;29.55;;;15.43;;
38358;SDS011;42072;48.044;14.416;2023-03-19T06:11:19;30.75;;;15.50;;
38358;SDS011;42072;48.044;14.416;2023-03-19T06:13:47;26.70;;;15.63;;
38358;SDS011;42072;48.044;14.416;2023-03-19T06:16:14;25.83;;;15.18;;
38358;SDS011;42072;48.044;14.416;2023-03-19T06:18:42;27.17;;;15.60;;
38358;SDS011;42072;48.044;14.416;2023-03-19T06:21:11;27.35;;;15.10;;
38358;SDS011;42072;48.044;14.416;2023-03-19T06:23:38;24.48;;;15.10;;
38358;SDS011;42072;48.044;14.416;2023-03-19T06:26:06;26.70;;;15.52;;
38358;SDS011;42072;48.044;14.416;2023-03-19T06:28:33;27.98;;;15.07;;
38358;SDS011;42072;48.044;14.416;2023-03-19T06:31:00;26.30;;;15.00;;
38358;SDS011;42072;48.044;14.416;2023-03-19T06:33:28;26.35;;;16.35;;
38358;SDS011;42072;48.044;14.416;2023-03-19T06:35:57;24.50;;;14.68;;
38358;SDS011;42072;48.044;14.416;2023-03-19T06:38:25;24.00;;;14.60;;
38358;SDS011;42072;48.044;14.416;2023-03-19T06:40:52;24.02;;;14.60;;
38358;SDS011;42072;48.044;14.416;2023-03-19T06:43:20;26.35;;;15.05;;
38358;SDS011;42072;48.044;14.416;2023-03-19T06:45:47;25.40;;;15.35;;
38358;SDS011;42072;48.044;14.416;2023-03-19T06:48:14;23.75;;;14.32;;
38358;SDS011;42072;48.044;14.416;2023-03-19T06:50:42;26.15;;;15.52;;
38358;SDS011;42072;48.044;14.416;2023-03-19T06:53:15;30.75;;;16.98;;
38358;SDS011;42072;48.044;14.416;2023-03-19T06:55:44;23.73;;;13.35;;
38358;SDS011;42072;48.044;14.416;2023-03-19T06:58:12;21.02;;;13.40;;
38358;SDS011;42072;48.044;14.416;2023-03-19T07:00:40;20.00;;;12.98;;
38358;SDS011;42072;48.044;14.416;2023-03-19T07:03:08;23.85;;;13.35;;
38358;SDS011;42072;48.044;14.416;2023-03-19T07:05:36;21.48;;;12.73;;
38358;SDS011;42072;48.044;14.416;2023-03-19T07:08:03;19.00;;;12.18;;
38358;SDS011;42072;48.044;14.416;2023-03-19T07:10:37;20.63;;;12.50;;
38358;SDS011;42072;48.044;14.416;2023-03-19T07:13:04;20.92;;;11.77;;
38358;SDS011;42072;48.044;14.416;2023-03-19T07:15:32;22.17;;;12.30;;
38358;SDS011;42072;48.044;14.416;2023-03-19T07:17:59;18.67;;;12.15;;
38358;SDS011;42072;48.044;14.416;2023-03-19T07:20:27;18.77;;;11.60;;
38358;SDS011;42072;48.044;14.416;2023-03-19T07:22:54;16.52;;;11.55;;
38358;SDS011;42072;48.044;14.416;2023-03-19T07:25:21;18.13;;;11.55;;
38358;SDS011;42072;48.044;14.416;2023-03-19T07:27:48;16.00;;;10.77;;
38358;SDS011;42072;48.044;14.416;2023-03-19T07:30:15;16.60;;;10.75;;
38358;SDS011;42072;48.044;14.416;2023-03-19T07:32:43;17.75;;;11.48;;
38358;SDS011;42072;48.044;14.416;2023-03-19T07:35:10;20.50;;;11.75;;
38358;SDS011;42072;48.044;14.416;2023-03-19T07:37:37;16.60;;;10.77;;
38358;SDS011;42072;48.044;14.416;2023-03-19T07:40:04;19.10;;;11.27;;
38358;SDS011;42072;48.044;14.416;2023-03-19T07:42:33;17.80;;;10.93;;
38358;SDS011;42072;48.044;14.416;2023-03-19T07:45:02;17.17;;;11.48;;
38358;SDS011;42072;48.044;14.416;2023-03-19T07:47:30;18.63;;;11.52;;
38358;SDS011;42072;48.044;14.416;2023-03-19T07:49:58;17.48;;;11.10;;
38358;SDS011;42072;48.044;14.416;2023-03-19T07:52:25;18.65;;;11.20;;
38358;SDS011;42072;48.044;14.416;2023-03-19T07:54:53;16.45;;;11.85;;
38358;SDS011;42072;48.044;14.416;2023-03-19T07:57:20;19.60;;;11.80;;
38358;SDS011;42072;48.044;14.416;2023-03-19T07:59:48;20.00;;;11.80;;
38358;SDS011;42072;48.044;14.416;2023-03-19T08:02:15;18.05;;;11.18;;
38358;SDS011;42072;48.044;14.416;2023-03-19T08:04:42;19.27;;;11.98;;
38358;SDS011;42072;48.044;14.416;2023-03-19T08:07:10;19.20;;;11.93;;
38358;SDS011;42072;48.044;14.416;2023-03-19T08:09:38;20.42;;;12.13;;
38358;SDS011;42072;48.044;14.416;2023-03-19T08:12:06;20.08;;;12.13;;
38358;SDS011;42072;48.044;14.416;2023-03-19T08:14:33;21.17;;;11.93;;
38358;SDS011;42072;48.044;14.416;2023-03-19T08:17:01;22.02;;;11.63;;
38358;SDS011;42072;48.044;14.416;2023-03-19T08:19:28;22.35;;;12.05;;
38358;SDS011;42072;48.044;14.416;2023-03-19T08:21:56;19.35;;;12.50;;
38358;SDS011;42072;48.044;14.416;2023-03-19T08:24:23;20.15;;;11.57;;
38358;SDS011;42072;48.044;14.416;2023-03-19T08:26:50;17.90;;;11.38;;
38358;SDS011;42072;48.044;14.416;2023-03-19T08:29:17;15.88;;;11.32;;
38358;SDS011;42072;48.044;14.416;2023-03-19T08:31:44;20.20;;;11.45;;
38358;SDS011;42072;48.044;14.416;2023-03-19T08:34:12;17.85;;;11.30;;
38358;SDS011;42072;48.044;14.416;2023-03-19T08:36:39;16.38;;;11.18;;
38358;SDS011;42072;48.044;14.416;2023-03-19T08:39:06;19.80;;;11.18;;
38358;SDS011;42072;48.044;14.416;2023-03-19T08:41:34;19.25;;;10.90;;
38358;SDS011;42072;48.044;14.416;2023-03-19T08:44:01;20.25;;;11.35;;
38358;SDS011;42072;48.044;14.416;2023-03-19T08:46:28;16.30;;;11.02;;
38358;SDS011;42072;48.044;14.416;2023-03-19T08:48:56;17.33;;;11.38;;
38358;SDS011;42072;48.044;14.416;2023-03-19T08:51:23;20.25;;;11.95;;
38358;SDS011;42072;48.044;14.416;2023-03-19T08:53:51;19.42;;;11.77;;
38358;SDS011;42072;48.044;14.416;2023-03-19T08:56:19;18.10;;;11.73;;
38358;SDS011;42072;48.044;14.416;2023-03-19T08:58:46;17.67;;;11.73;;
38358;SDS011;42072;48.044;14.416;2023-03-19T09:01:14;21.58;;;12.52;;
38358;SDS011;42072;48.044;14.416;2023-03-19T09:03:41;18.30;;;11.13;;
38358;SDS011;42072;48.044;14.416;2023-03-19T09:06:10;17.45;;;11.70;;
38358;SDS011;42072;48.044;14.416;2023-03-19T09:08:40;18.15;;;12.13;;
38358;SDS011;42072;48.044;14.416;2023-03-19T09:11:08;20.08;;;11.40;;
38358;SDS011;42072;48.044;14.416;2023-03-19T09:13:36;21.60;;;13.15;;
38358;SDS011;42072;48.044;14.416;2023-03-19T09:16:04;19.45;;;11.63;;
38358;SDS011;42072;48.044;14.416;2023-03-19T09:18:32;19.70;;;12.65;;
38358;SDS011;42072;48.044;14.416;2023-03-19T09:21:00;20.00;;;12.02;;
38358;SDS011;42072;48.044;14.416;2023-03-19T09:23:27;22.77;;;12.02;;
38358;SDS011;42072;48.044;14.416;2023-03-19T09:25:54;19.85;;;12.50;;
38358;SDS011;42072;48.044;14.416;2023-03-19T09:28:22;16.98;;;11.70;;
38358;SDS011;42072;48.044;14.416;2023-03-19T09:30:49;20.27;;;12.32;;
38358;SDS011;42072;48.044;14.416;2023-03-19T09:33:17;17.65;;;12.35;;
38358;SDS011;42072;48.044;14.416;2023-03-19T09:35:49;19.08;;;13.00;;
38358;SDS011;42072;48.044;14.416;2023-03-19T09:38:19;19.17;;;12.85;;
38358;SDS011;42072;48.044;14.416;2023-03-19T09:43:47;16.05;;;11.38;;
38358;SDS011;42072;48.044;14.416;2023-03-19T09:46:29;18.00;;;11.75;;
38358;SDS011;42072;48.044;14.416;2023-03-19T09:49:03;19.05;;;12.88;;
38358;SDS011;42072;48.044;14.416;2023-03-19T09:54:45;22.77;;;13.15;;
38358;SDS011;42072;48.044;14.416;2023-03-19T09:57:18;21.65;;;12.13;;
38358;SDS011;42072;48.044;14.416;2023-03-19T09:59:46;18.67;;;12.25;;
38358;SDS011;42072;48.044;14.416;2023-03-19T10:10:35;17.73;;;11.57;;
38358;SDS011;42072;48.044;14.416;2023-03-19T10:16:06;19.58;;;12.15;;
38358;SDS011;42072;48.044;14.416;2023-03-19T10:18:43;20.45;;;13.85;;
38358;SDS011;42072;48.044;14.416;2023-03-19T10:23:52;22.63;;;12.85;;
38358;SDS011;42072;48.044;14.416;2023-03-19T10:26:33;12.98;;;9.80;;
38358;SDS011;42072;48.044;14.416;2023-03-19T10:29:20;17.70;;;10.75;;
38358;SDS011;42072;48.044;14.416;2023-03-19T10:32:06;17.83;;;11.55;;
38358;SDS011;42072;48.044;14.416;2023-03-19T10:34:41;17.05;;;12.18;;
38358;SDS011;42072;48.044;14.416;2023-03-19T10:37:18;27.10;;;15.83;;
38358;SDS011;42072;48.044;14.416;2023-03-19T10:39:59;17.70;;;11.32;;
38358;SDS011;42072;48.044;14.416;2023-03-19T10:47:52;20.45;;;11.52;;
38358;SDS011;42072;48.044;14.416;2023-03-19T10:50:26;19.02;;;12.60;;
38358;SDS011;42072;48.044;14.416;2023-03-19T10:53:03;24.75;;;15.65;;
38358;SDS011;42072;48.044;14.416;2023-03-19T10:55:43;18.20;;;12.68;;
38358;SDS011;42072;48.044;14.416;2023-03-19T10:58:18;20.15;;;12.07;;
38358;SDS011;42072;48.044;14.416;2023-03-19T11:00:48;21.40;;;12.63;;
38358;SDS011;42072;48.044;14.416;2023-03-19T11:03:48;19.17;;;12.20;;
38358;SDS011;42072;48.044;14.416;2023-03-19T11:06:35;19.80;;;11.93;;
38358;SDS011;42072;48.044;14.416;2023-03-19T11:11:43;17.65;;;12.05;;
38358;SDS011;42072;48.044;14.416;2023-03-19T11:14:17;16.75;;;11.77;;
38358;SDS011;42072;48.044;14.416;2023-03-19T11:22:53;15.65;;;10.27;;
38358;SDS011;42072;48.044;14.416;2023-03-19T11:28:05;17.05;;;11.45;;
38358;SDS011;42072;48.044;14.416;2023-03-19T11:33:43;17.08;;;11.27;;
38358;SDS011;42072;48.044;14.416;2023-03-19T12:05:16;16.42;;;11.45;;
38358;SDS011;42072;48.044;14.416;2023-03-19T12:18:27;18.02;;;11.15;;
38358;SDS011;42072;48.044;14.416;2023-03-19T12:24:53;18.35;;;12.45;;
38358;SDS011;42072;48.044;14.416;2023-03-19T12:27:15;18.05;;;12.15;;
38358;SDS011;42072;48.044;14.416;2023-03-19T12:29:52;18.33;;;11.75;;
38358;SDS011;42072;48.044;14.416;2023-03-19T12:35:20;16.67;;;11.80;;
38358;SDS011;42072;48.044;14.416;2023-03-19T12:38:15;16.50;;;11.70;;
38358;SDS011;42072;48.044;14.416;2023-03-19T12:41:04;16.65;;;11.90;;
38358;SDS011;42072;48.044;14.416;2023-03-19T12:43:40;16.45;;;11.50;;
38358;SDS011;42072;48.044;14.416;2023-03-19T12:46:30;16.45;;;12.43;;
38358;SDS011;42072;48.044;14.416;2023-03-19T12:49:04;17.70;;;11.13;;
38358;SDS011;42072;48.044;14.416;2023-03-19T12:52:19;16.13;;;10.93;;
38358;SDS011;42072;48.044;14.416;2023-03-19T12:55:03;17.80;;;10.70;;
38358;SDS011;42072;48.044;14.416;2023-03-19T12:57:48;15.95;;;11.77;;
38358;SDS011;42072;48.044;14.416;2023-03-19T13:03:06;15.50;;;11.30;;
38358;SDS011;42072;48.044;14.416;2023-03-19T13:05:46;15.68;;;10.95;;
38358;SDS011;42072;48.044;14.416;2023-03-19T13:08:31;15.30;;;11.43;;
38358;SDS011;42072;48.044;14.416;2023-03-19T13:11:13;16.77;;;10.68;;
38358;SDS011;42072;48.044;14.416;2023-03-19T13:14:20;17.30;;;11.48;;
38358;SDS011;42072;48.044;14.416;2023-03-19T13:20:13;14.13;;;10.15;;
38358;SDS011;42072;48.044;14.416;2023-03-19T13:23:03;15.90;;;10.85;;
38358;SDS011;42072;48.044;14.416;2023-03-19T13:25:37;17.05;;;10.85;;
38358;SDS011;42072;48.044;14.416;2023-03-19T13:28:11;16.35;;;10.80;;
38358;SDS011;42072;48.044;14.416;2023-03-19T13:33:52;17.52;;;12.23;;
38358;SDS011;42072;48.044;14.416;2023-03-19T13:36:50;16.98;;;11.65;;
38358;SDS011;42072;48.044;14.416;2023-03-19T13:39:30;15.50;;;10.95;;
38358;SDS011;42072;48.044;14.416;2023-03-19T13:45:01;15.90;;;10.77;;
38358;SDS011;42072;48.044;14.416;2023-03-19T13:47:49;15.23;;;11.23;;
38358;SDS011;42072;48.044;14.416;2023-03-19T13:52:49;15.20;;;11.05;;
38358;SDS011;42072;48.044;14.416;2023-03-19T13:57:52;13.50;;;10.70;;
38358;SDS011;42072;48.044;14.416;2023-03-19T14:00:53;15.65;;;11.18;;
38358;SDS011;42072;48.044;14.416;2023-03-19T14:03:23;14.02;;;11.00;;
38358;SDS011;42072;48.044;14.416;2023-03-19T14:05:57;14.65;;;10.75;;
38358;SDS011;42072;48.044;14.416;2023-03-19T14:08:26;17.42;;;11.57;;
38358;SDS011;42072;48.044;14.416;2023-03-19T14:10:59;16.50;;;11.05;;
38358;SDS011;42072;48.044;14.416;2023-03-19T14:13:41;15.23;;;11.00;;
38358;SDS011;42072;48.044;14.416;2023-03-19T14:16:15;15.65;;;11.30;;
38358;SDS011;42072;48.044;14.416;2023-03-19T14:18:43;13.73;;;10.50;;
38358;SDS011;42072;48.044;14.416;2023-03-19T14:21:15;16.92;;;11.15;;
38358;SDS011;42072;48.044;14.416;2023-03-19T14:24:00;15.30;;;11.25;;
38358;SDS011;42072;48.044;14.416;2023-03-19T14:27:30;15.55;;;11.00;;
38358;SDS011;42072;48.044;14.416;2023-03-19T14:30:06;16.13;;;11.07;;
38358;SDS011;42072;48.044;14.416;2023-03-19T14:32:37;15.35;;;11.52;;
38358;SDS011;42072;48.044;14.416;2023-03-19T14:35:10;16.25;;;11.35;;
38358;SDS011;42072;48.044;14.416;2023-03-19T14:40:16;16.02;;;12.20;;
38358;SDS011;42072;48.044;14.416;2023-03-19T14:43:02;27.70;;;18.00;;
38358;SDS011;42072;48.044;14.416;2023-03-19T14:46:00;18.88;;;11.68;;
38358;SDS011;42072;48.044;14.416;2023-03-19T14:57:34;17.60;;;13.05;;
38358;SDS011;42072;48.044;14.416;2023-03-19T14:59:58;18.00;;;13.38;;
38358;SDS011;42072;48.044;14.416;2023-03-19T15:05:46;24.80;;;15.13;;
38358;SDS011;42072;48.044;14.416;2023-03-19T15:08:08;24.45;;;14.32;;
38358;SDS011;42072;48.044;14.416;2023-03-19T15:19:30;20.98;;;14.30;;
38358;SDS011;42072;48.044;14.416;2023-03-19T15:22:02;22.00;;;14.63;;
38358;SDS011;42072;48.044;14.416;2023-03-19T15:24:31;19.95;;;14.05;;
38358;SDS011;42072;48.044;14.416;2023-03-19T15:27:01;21.48;;;14.57;;
38358;SDS011;42072;48.044;14.416;2023-03-19T15:29:42;18.13;;;12.75;;
38358;SDS011;42072;48.044;14.416;2023-03-19T15:32:29;22.05;;;14.15;;
38358;SDS011;42072;48.044;14.416;2023-03-19T15:35:17;19.38;;;12.40;;
38358;SDS011;42072;48.044;14.416;2023-03-19T15:37:48;17.10;;;12.23;;
38358;SDS011;42072;48.044;14.416;2023-03-19T15:40:20;20.33;;;12.23;;
38358;SDS011;42072;48.044;14.416;2023-03-19T15:42:55;20.23;;;13.18;;
38358;SDS011;42072;48.044;14.416;2023-03-19T15:45:25;21.70;;;12.10;;
38358;SDS011;42072;48.044;14.416;2023-03-19T15:51:03;17.20;;;11.82;;
38358;SDS011;42072;48.044;14.416;2023-03-19T15:53:32;17.33;;;11.48;;
38358;SDS011;42072;48.044;14.416;2023-03-19T15:56:03;25.98;;;13.20;;
38358;SDS011;42072;48.044;14.416;2023-03-19T15:58:38;18.73;;;11.70;;
38358;SDS011;42072;48.044;14.416;2023-03-19T16:01:13;15.68;;;11.73;;
38358;SDS011;42072;48.044;14.416;2023-03-19T16:03:44;19.05;;;11.75;;
38358;SDS011;42072;48.044;14.416;2023-03-19T16:06:35;17.52;;;11.20;;
38358;SDS011;42072;48.044;14.416;2023-03-19T16:11:53;18.83;;;11.63;;
38358;SDS011;42072;48.044;14.416;2023-03-19T16:14:23;20.25;;;12.18;;
38358;SDS011;42072;48.044;14.416;2023-03-19T16:17:08;23.52;;;14.02;;
38358;SDS011;42072;48.044;14.416;2023-03-19T16:19:50;22.38;;;13.32;;
38358;SDS011;42072;48.044;14.416;2023-03-19T16:22:23;19.27;;;13.13;;
38358;SDS011;42072;48.044;14.416;2023-03-19T16:24:59;20.20;;;13.45;;
38358;SDS011;42072;48.044;14.416;2023-03-19T16:27:34;21.58;;;14.55;;
38358;SDS011;42072;48.044;14.416;2023-03-19T16:32:42;23.52;;;13.35;;
38358;SDS011;42072;48.044;14.416;2023-03-19T16:35:18;19.98;;;13.50;;
38358;SDS011;42072;48.044;14.416;2023-03-19T16:37:53;19.55;;;13.10;;
38358;SDS011;42072;48.044;14.416;2023-03-19T16:43:06;21.25;;;13.65;;
38358;SDS011;42072;48.044;14.416;2023-03-19T16:46:02;20.60;;;13.55;;
38358;SDS011;42072;48.044;14.416;2023-03-19T16:48:32;22.38;;;13.32;;
38358;SDS011;42072;48.044;14.416;2023-03-19T16:51:00;19.50;;;13.68;;
38358;SDS011;42072;48.044;14.416;2023-03-19T16:53:30;22.08;;;13.50;;